sensor_id;sensor_type;location;lat;lon;timestamp;pressure;altitude;pressure_sealevel;temperature;humidity
73151;BME280;61354;50.758;6.106;2022-08-03T00:02:22;99275.09;;;20.71;63.31
73151;BME280;61354;50.758;6.106;2022-08-03T00:04:47;99270.19;;;20.75;62.83
73151;BME280;61354;50.758;6.106;2022-08-03T00:07:15;99271.34;;;20.77;62.69
73151;BME280;61354;50.758;6.106;2022-08-03T00:09:40;99275.38;;;20.80;62.52
73151;BME280;61354;50.758;6.106;2022-08-03T00:12:06;99274.53;;;20.83;62.32
73151;BME280;61354;50.758;6.106;2022-08-03T00:14:32;99271.22;;;20.88;62.34
73151;BME280;61354;50.758;6.106;2022-08-03T00:16:57;99270.09;;;20.82;62.44
73151;BME280;61354;50.758;6.106;2022-08-03T00:19:23;99262.44;;;20.82;62.46
73151;BME280;61354;50.758;6.106;2022-08-03T00:21:49;99264.47;;;20.82;62.78
73151;BME280;61354;50.758;6.106;2022-08-03T00:24:15;99260.03;;;20.81;62.94
73151;BME280;61354;50.758;6.106;2022-08-03T00:26:40;99266.47;;;20.81;63.02
73151;BME280;61354;50.758;6.106;2022-08-03T00:29:06;99260.03;;;20.81;62.22
73151;BME280;61354;50.758;6.106;2022-08-03T00:31:31;99259.22;;;20.80;63.33
73151;BME280;61354;50.758;6.106;2022-08-03T00:33:57;99256.94;;;20.72;63.77
73151;BME280;61354;50.758;6.106;2022-08-03T00:36:22;99259.28;;;20.77;63.30
73151;BME280;61354;50.758;6.106;2022-08-03T00:38:48;99255.28;;;20.74;63.15
73151;BME280;61354;50.758;6.106;2022-08-03T00:41:13;99262.56;;;20.72;63.51
73151;BME280;61354;50.758;6.106;2022-08-03T00:43:39;99264.63;;;20.68;63.79
73151;BME280;61354;50.758;6.106;2022-08-03T00:46:04;99253.75;;;20.70;63.06
73151;BME280;61354;50.758;6.106;2022-08-03T00:48:30;99250.53;;;20.68;63.33
73151;BME280;61354;50.758;6.106;2022-08-03T00:50:55;99248.53;;;20.65;63.25
73151;BME280;61354;50.758;6.106;2022-08-03T00:53:21;99249.78;;;20.64;63.33
73151;BME280;61354;50.758;6.106;2022-08-03T00:55:46;99248.19;;;20.63;63.21
73151;BME280;61354;50.758;6.106;2022-08-03T00:58:12;99248.28;;;20.55;63.51
73151;BME280;61354;50.758;6.106;2022-08-03T01:00:39;99243.56;;;20.45;64.53
73151;BME280;61354;50.758;6.106;2022-08-03T01:03:09;99260.97;;;20.36;64.80
73151;BME280;61354;50.758;6.106;2022-08-03T01:05:51;99246.44;;;20.38;64.76
73151;BME280;61354;50.758;6.106;2022-08-03T01:11:31;99249.19;;;20.45;64.23
73151;BME280;61354;50.758;6.106;2022-08-03T01:14:26;99243.59;;;20.42;64.31
73151;BME280;61354;50.758;6.106;2022-08-03T01:17:02;99240.41;;;20.36;64.31
73151;BME280;61354;50.758;6.106;2022-08-03T01:19:53;99239.63;;;20.35;64.17
73151;BME280;61354;50.758;6.106;2022-08-03T01:28:32;99234.50;;;20.27;64.64
73151;BME280;61354;50.758;6.106;2022-08-03T01:31:06;99234.94;;;20.25;64.71
73151;BME280;61354;50.758;6.106;2022-08-03T01:33:43;99236.56;;;20.23;64.75
73151;BME280;61354;50.758;6.106;2022-08-03T01:36:42;99239.00;;;20.21;65.17
73151;BME280;61354;50.758;6.106;2022-08-03T01:39:10;99235.78;;;20.19;65.42
73151;BME280;61354;50.758;6.106;2022-08-03T01:41:41;99232.97;;;20.19;65.21
73151;BME280;61354;50.758;6.106;2022-08-03T01:44:10;99231.38;;;20.18;65.50
73151;BME280;61354;50.758;6.106;2022-08-03T01:46:37;99226.94;;;20.20;65.39
73151;BME280;61354;50.758;6.106;2022-08-03T01:49:06;99226.13;;;20.20;65.49
73151;BME280;61354;50.758;6.106;2022-08-03T01:51:34;99229.38;;;20.18;65.85
73151;BME280;61354;50.758;6.106;2022-08-03T01:54:02;99224.53;;;20.19;65.82
73151;BME280;61354;50.758;6.106;2022-08-03T01:56:30;99220.44;;;20.23;65.12
73151;BME280;61354;50.758;6.106;2022-08-03T01:58:57;99223.69;;;20.22;65.18
73151;BME280;61354;50.758;6.106;2022-08-03T02:01:26;99226.13;;;20.20;65.49
73151;BME280;61354;50.758;6.106;2022-08-03T02:03:53;99219.63;;;20.23;65.21
73151;BME280;61354;50.758;6.106;2022-08-03T02:06:20;99222.56;;;20.16;65.50
73151;BME280;61354;50.758;6.106;2022-08-03T02:08:47;99228.25;;;20.12;66.05
73151;BME280;61354;50.758;6.106;2022-08-03T02:11:13;99219.06;;;20.04;66.78
73151;BME280;61354;50.758;6.106;2022-08-03T02:13:39;99215.56;;;19.93;67.42
73151;BME280;61354;50.758;6.106;2022-08-03T02:16:06;99212.28;;;19.98;67.29
73151;BME280;61354;50.758;6.106;2022-08-03T02:18:32;99220.34;;;19.96;67.13
73151;BME280;61354;50.758;6.106;2022-08-03T02:21:00;99216.81;;;19.89;67.18
73151;BME280;61354;50.758;6.106;2022-08-03T02:23:27;99213.66;;;19.83;67.44
73151;BME280;61354;50.758;6.106;2022-08-03T02:25:56;99221.66;;;19.88;67.34
73151;BME280;61354;50.758;6.106;2022-08-03T02:28:29;99221.22;;;19.90;66.99
73151;BME280;61354;50.758;6.106;2022-08-03T02:30:57;99228.41;;;19.94;66.64
73151;BME280;61354;50.758;6.106;2022-08-03T02:33:29;99223.22;;;19.93;66.30
73151;BME280;61354;50.758;6.106;2022-08-03T02:35:56;99215.94;;;19.95;66.27
73151;BME280;61354;50.758;6.106;2022-08-03T02:38:33;99216.75;;;19.96;66.04
73151;BME280;61354;50.758;6.106;2022-08-03T02:41:00;99217.53;;;19.96;66.03
73151;BME280;61354;50.758;6.106;2022-08-03T02:43:29;99215.09;;;19.98;65.99
73151;BME280;61354;50.758;6.106;2022-08-03T02:45:56;99217.06;;;20.01;65.82
73151;BME280;61354;50.758;6.106;2022-08-03T02:48:26;99217.88;;;20.02;65.75
73151;BME280;61354;50.758;6.106;2022-08-03T02:50:54;99215.00;;;20.05;65.31
73151;BME280;61354;50.758;6.106;2022-08-03T02:53:22;99223.88;;;20.07;65.30
73151;BME280;61354;50.758;6.106;2022-08-03T02:55:49;99221.09;;;20.04;65.68
73151;BME280;61354;50.758;6.106;2022-08-03T02:58:18;99220.34;;;19.96;65.96
73151;BME280;61354;50.758;6.106;2022-08-03T03:00:45;99219.41;;;19.72;67.38
73151;BME280;61354;50.758;6.106;2022-08-03T03:03:12;99221.97;;;19.52;68.63
73151;BME280;61354;50.758;6.106;2022-08-03T03:05:39;99224.44;;;19.47;68.89
73151;BME280;61354;50.758;6.106;2022-08-03T03:08:05;99221.13;;;19.55;68.26
73151;BME280;61354;50.758;6.106;2022-08-03T03:10:31;99219.56;;;19.54;68.46
73151;BME280;61354;50.758;6.106;2022-08-03T03:12:57;99219.88;;;19.64;68.13
73151;BME280;61354;50.758;6.106;2022-08-03T03:15:25;99221.88;;;19.67;67.34
73151;BME280;61354;50.758;6.106;2022-08-03T03:17:52;99227.47;;;19.70;67.10
73151;BME280;61354;50.758;6.106;2022-08-03T03:20:18;99219.44;;;19.69;67.23
73151;BME280;61354;50.758;6.106;2022-08-03T03:22:47;99224.00;;;19.48;67.52
73151;BME280;61354;50.758;6.106;2022-08-03T03:25:14;99224.78;;;19.52;68.15
73151;BME280;61354;50.758;6.106;2022-08-03T03:27:40;99229.94;;;19.65;67.26
73151;BME280;61354;50.758;6.106;2022-08-03T03:30:07;99228.84;;;19.48;67.75
73151;BME280;61354;50.758;6.106;2022-08-03T03:32:33;99234.41;;;19.58;67.61
73151;BME280;61354;50.758;6.106;2022-08-03T03:35:01;99225.13;;;19.61;67.71
73151;BME280;61354;50.758;6.106;2022-08-03T03:37:28;99226.78;;;19.55;67.58
73151;BME280;61354;50.758;6.106;2022-08-03T03:39:54;99223.19;;;19.51;68.25
73151;BME280;61354;50.758;6.106;2022-08-03T03:42:20;99224.78;;;19.52;67.86
73151;BME280;61354;50.758;6.106;2022-08-03T03:44:45;99227.22;;;19.50;68.04
73151;BME280;61354;50.758;6.106;2022-08-03T03:47:11;99235.03;;;19.28;68.49
73151;BME280;61354;50.758;6.106;2022-08-03T03:49:38;99228.50;;;19.42;68.18
73151;BME280;61354;50.758;6.106;2022-08-03T03:52:04;99228.50;;;19.42;68.65
73151;BME280;61354;50.758;6.106;2022-08-03T03:54:43;99222.88;;;19.42;68.33
73151;BME280;61354;50.758;6.106;2022-08-03T03:57:11;99222.94;;;19.35;68.50
73151;BME280;61354;50.758;6.106;2022-08-03T03:59:37;99222.09;;;19.42;68.05
73151;BME280;61354;50.758;6.106;2022-08-03T04:02:05;99221.28;;;19.41;67.60
73151;BME280;61354;50.758;6.106;2022-08-03T04:04:32;99218.84;;;19.43;67.92
73151;BME280;61354;50.758;6.106;2022-08-03T04:07:17;99226.91;;;19.41;67.98
73151;BME280;61354;50.758;6.106;2022-08-03T04:10:03;99222.09;;;19.38;68.01
73151;BME280;61354;50.758;6.106;2022-08-03T04:12:50;99228.50;;;19.42;67.56
73151;BME280;61354;50.758;6.106;2022-08-03T04:15:20;99224.53;;;19.36;68.11
73151;BME280;61354;50.758;6.106;2022-08-03T04:17:48;99224.53;;;19.32;67.98
73151;BME280;61354;50.758;6.106;2022-08-03T04:20:18;99228.56;;;19.35;67.78
73151;BME280;61354;50.758;6.106;2022-08-03T04:22:48;99224.91;;;19.38;67.77
73151;BME280;61354;50.758;6.106;2022-08-03T04:25:16;99228.97;;;19.37;67.65
73151;BME280;61354;50.758;6.106;2022-08-03T04:27:45;99226.09;;;19.41;67.94
73151;BME280;61354;50.758;6.106;2022-08-03T04:30:12;99229.31;;;19.39;67.72
73151;BME280;61354;50.758;6.106;2022-08-03T04:32:39;99227.34;;;19.36;68.19
73151;BME280;61354;50.758;6.106;2022-08-03T04:35:06;99221.28;;;19.41;67.57
73151;BME280;61354;50.758;6.106;2022-08-03T04:37:42;99225.28;;;19.40;67.84
73151;BME280;61354;50.758;6.106;2022-08-03T04:40:12;99226.50;;;19.43;68.00
73151;BME280;61354;50.758;6.106;2022-08-03T04:42:39;99226.06;;;19.44;67.36
73151;BME280;61354;50.758;6.106;2022-08-03T04:45:05;99227.25;;;19.47;67.39
73151;BME280;61354;50.758;6.106;2022-08-03T04:47:33;99234.09;;;19.49;67.46
73151;BME280;61354;50.758;6.106;2022-08-03T04:50:02;99231.63;;;19.51;67.33
73151;BME280;61354;50.758;6.106;2022-08-03T04:52:29;99234.84;;;19.53;67.46
73151;BME280;61354;50.758;6.106;2022-08-03T04:54:55;99231.19;;;19.56;67.55
73151;BME280;61354;50.758;6.106;2022-08-03T04:57:21;99244.09;;;19.54;67.34
73151;BME280;61354;50.758;6.106;2022-08-03T04:59:46;99239.63;;;19.56;67.62
73151;BME280;61354;50.758;6.106;2022-08-03T05:02:13;99241.63;;;19.59;67.44
73151;BME280;61354;50.758;6.106;2022-08-03T05:04:41;99246.47;;;19.59;67.27
73151;BME280;61354;50.758;6.106;2022-08-03T05:07:11;99242.06;;;19.58;68.93
73151;BME280;61354;50.758;6.106;2022-08-03T05:09:43;99243.69;;;19.55;68.67
73151;BME280;61354;50.758;6.106;2022-08-03T05:12:10;99244.06;;;19.57;68.74
73151;BME280;61354;50.758;6.106;2022-08-03T05:14:37;99240.84;;;19.63;69.29
73151;BME280;61354;50.758;6.106;2022-08-03T05:17:04;99246.84;;;19.65;69.38
73151;BME280;61354;50.758;6.106;2022-08-03T05:19:31;99235.56;;;19.65;69.28
73151;BME280;61354;50.758;6.106;2022-08-03T05:22:02;99240.41;;;19.60;69.69
73151;BME280;61354;50.758;6.106;2022-08-03T05:24:28;99241.63;;;19.59;69.72
73151;BME280;61354;50.758;6.106;2022-08-03T05:26:54;99242.88;;;19.55;69.78
73151;BME280;61354;50.758;6.106;2022-08-03T05:29:19;99242.72;;;19.73;69.61
73151;BME280;61354;50.758;6.106;2022-08-03T05:31:46;99237.91;;;19.73;69.31
73151;BME280;61354;50.758;6.106;2022-08-03T05:34:11;99239.84;;;19.80;69.73
73151;BME280;61354;50.758;6.106;2022-08-03T05:36:38;99245.09;;;19.78;70.02
73151;BME280;61354;50.758;6.106;2022-08-03T05:39:06;99239.38;;;19.85;69.60
73151;BME280;61354;50.758;6.106;2022-08-03T05:41:31;99235.31;;;19.90;69.92
73151;BME280;61354;50.758;6.106;2022-08-03T05:43:59;99234.06;;;19.94;70.04
73151;BME280;61354;50.758;6.106;2022-08-03T05:46:26;99239.63;;;20.01;69.23
73151;BME280;61354;50.758;6.106;2022-08-03T05:48:53;99239.94;;;20.07;69.40
73151;BME280;61354;50.758;6.106;2022-08-03T05:51:20;99239.84;;;20.18;68.75
73151;BME280;61354;50.758;6.106;2022-08-03T05:53:48;99230.09;;;20.26;68.28
73151;BME280;61354;50.758;6.106;2022-08-03T05:56:15;99238.47;;;20.33;67.66
73151;BME280;61354;50.758;6.106;2022-08-03T05:58:46;99243.63;;;20.38;67.44
73151;BME280;61354;50.758;6.106;2022-08-03T06:01:12;99241.94;;;20.44;68.55
73151;BME280;61354;50.758;6.106;2022-08-03T06:03:39;99240.28;;;20.50;67.26
73151;BME280;61354;50.758;6.106;2022-08-03T06:06:05;99241.78;;;20.58;66.59
73151;BME280;61354;50.758;6.106;2022-08-03T06:08:32;99240.88;;;20.65;66.13
73151;BME280;61354;50.758;6.106;2022-08-03T06:10:58;99238.75;;;20.73;66.31
73151;BME280;61354;50.758;6.106;2022-08-03T06:13:24;99243.88;;;20.81;66.10
73151;BME280;61354;50.758;6.106;2022-08-03T06:15:50;99243.78;;;20.89;65.61
73151;BME280;61354;50.758;6.106;2022-08-03T06:18:16;99241.28;;;20.94;64.88
73151;BME280;61354;50.758;6.106;2022-08-03T06:20:45;99242.75;;;21.02;64.76
73151;BME280;61354;50.758;6.106;2022-08-03T06:23:12;99234.59;;;21.12;64.90
73151;BME280;61354;50.758;6.106;2022-08-03T06:25:39;99240.09;;;21.19;64.38
73151;BME280;61354;50.758;6.106;2022-08-03T06:28:06;99238.41;;;21.25;64.01
73151;BME280;61354;50.758;6.106;2022-08-03T06:30:32;99234.28;;;21.29;63.70
73151;BME280;61354;50.758;6.106;2022-08-03T06:32:58;99233.78;;;21.38;63.06
73151;BME280;61354;50.758;6.106;2022-08-03T06:35:23;99232.44;;;21.46;62.85
73151;BME280;61354;50.758;6.106;2022-08-03T06:37:50;99236.28;;;21.56;62.40
73151;BME280;61354;50.758;6.106;2022-08-03T06:40:22;99240.19;;;21.66;62.56
73151;BME280;61354;50.758;6.106;2022-08-03T06:42:56;99231.06;;;21.78;61.23
73151;BME280;61354;50.758;6.106;2022-08-03T06:45:27;99234.97;;;21.84;61.47
73151;BME280;61354;50.758;6.106;2022-08-03T06:50:35;99237.06;;;22.03;61.12
73151;BME280;61354;50.758;6.106;2022-08-03T06:53:03;99237.69;;;22.15;60.85
73151;BME280;61354;50.758;6.106;2022-08-03T06:55:29;99231.06;;;22.21;60.90
73151;BME280;61354;50.758;6.106;2022-08-03T06:57:55;99237.44;;;22.25;59.86
73151;BME280;61354;50.758;6.106;2022-08-03T07:00:21;99235.72;;;22.31;60.22
73151;BME280;61354;50.758;6.106;2022-08-03T07:02:49;99238.47;;;22.35;60.42
73151;BME280;61354;50.758;6.106;2022-08-03T07:05:16;99238.38;;;22.39;60.34
73151;BME280;61354;50.758;6.106;2022-08-03T07:07:41;99235.41;;;22.46;60.24
73151;BME280;61354;50.758;6.106;2022-08-03T07:10:09;99241.72;;;22.53;60.06
73151;BME280;61354;50.758;6.106;2022-08-03T07:12:36;99248.84;;;22.62;60.28
73151;BME280;61354;50.758;6.106;2022-08-03T07:15:04;99241.78;;;22.70;60.69
73151;BME280;61354;50.758;6.106;2022-08-03T07:17:33;99246.06;;;22.78;59.02
73151;BME280;61354;50.758;6.106;2022-08-03T07:20:07;99242.69;;;22.83;59.58
73151;BME280;61354;50.758;6.106;2022-08-03T07:22:34;99233.69;;;22.88;59.14
73151;BME280;61354;50.758;6.106;2022-08-03T07:25:01;99242.06;;;22.95;59.49
73151;BME280;61354;50.758;6.106;2022-08-03T07:27:27;99241.19;;;22.98;59.04
73151;BME280;61354;50.758;6.106;2022-08-03T07:29:55;99246.88;;;23.15;58.40
73151;BME280;61354;50.758;6.106;2022-08-03T07:32:22;99252.44;;;23.18;58.31
73151;BME280;61354;50.758;6.106;2022-08-03T07:34:48;99253.06;;;23.26;57.76
73151;BME280;61354;50.758;6.106;2022-08-03T07:37:14;99249.19;;;23.36;56.43
73151;BME280;61354;50.758;6.106;2022-08-03T07:39:41;99252.72;;;23.40;56.83
73151;BME280;61354;50.758;6.106;2022-08-03T07:42:07;99245.97;;;23.50;56.59
73151;BME280;61354;50.758;6.106;2022-08-03T07:44:33;99249.34;;;23.62;55.58
73151;BME280;61354;50.758;6.106;2022-08-03T07:46:58;99247.06;;;23.73;54.92
73151;BME280;61354;50.758;6.106;2022-08-03T07:49:24;99247.47;;;23.88;54.90
73151;BME280;61354;50.758;6.106;2022-08-03T07:51:50;99245.81;;;23.90;54.24
73151;BME280;61354;50.758;6.106;2022-08-03T07:54:36;99250.13;;;23.95;53.87
73151;BME280;61354;50.758;6.106;2022-08-03T07:57:02;99247.91;;;24.02;53.59
73151;BME280;61354;50.758;6.106;2022-08-03T07:59:28;99256.22;;;24.10;53.01
73151;BME280;61354;50.758;6.106;2022-08-03T08:01:54;99246.78;;;24.13;52.57
73151;BME280;61354;50.758;6.106;2022-08-03T08:04:21;99250.97;;;24.37;51.77
73151;BME280;61354;50.758;6.106;2022-08-03T08:06:47;99250.47;;;24.26;52.54
73151;BME280;61354;50.758;6.106;2022-08-03T08:09:12;99252.41;;;24.45;52.33
73151;BME280;61354;50.758;6.106;2022-08-03T08:11:38;99252.50;;;24.42;52.12
73151;BME280;61354;50.758;6.106;2022-08-03T08:14:03;99253.19;;;24.46;51.73
73151;BME280;61354;50.758;6.106;2022-08-03T08:16:29;99249.25;;;24.56;51.50
73151;BME280;61354;50.758;6.106;2022-08-03T08:18:55;99254.47;;;24.58;52.02
73151;BME280;61354;50.758;6.106;2022-08-03T08:21:20;99248.78;;;24.58;50.74
73151;BME280;61354;50.758;6.106;2022-08-03T08:23:46;99252.19;;;24.52;51.72
73151;BME280;61354;50.758;6.106;2022-08-03T08:26:12;99255.38;;;24.54;51.26
73151;BME280;61354;50.758;6.106;2022-08-03T08:28:38;99244.53;;;24.91;49.74
73151;BME280;61354;50.758;6.106;2022-08-03T08:31:03;99244.63;;;24.88;50.38
73151;BME280;61354;50.758;6.106;2022-08-03T08:33:29;99243.88;;;25.13;50.62
73151;BME280;61354;50.758;6.106;2022-08-03T08:35:55;99243.88;;;25.13;49.50
73151;BME280;61354;50.758;6.106;2022-08-03T08:38:21;99244.81;;;25.10;49.94
73151;BME280;61354;50.758;6.106;2022-08-03T08:40:49;99245.59;;;25.10;50.02
73151;BME280;61354;50.758;6.106;2022-08-03T08:43:15;99241.59;;;25.08;49.29
73151;BME280;61354;50.758;6.106;2022-08-03T08:45:42;99251.72;;;25.09;50.17
73151;BME280;61354;50.758;6.106;2022-08-03T08:48:09;99248.66;;;25.41;49.79
73151;BME280;61354;50.758;6.106;2022-08-03T08:50:37;99245.03;;;25.28;49.36
73151;BME280;61354;50.758;6.106;2022-08-03T08:53:06;99245.13;;;25.24;50.86
73151;BME280;61354;50.758;6.106;2022-08-03T08:55:34;99252.41;;;25.25;50.36
73151;BME280;61354;50.758;6.106;2022-08-03T08:58:04;99245.81;;;25.28;49.15
73151;BME280;61354;50.758;6.106;2022-08-03T09:00:31;99253.31;;;25.35;49.93
73151;BME280;61354;50.758;6.106;2022-08-03T09:02:57;99252.25;;;25.54;48.48
73151;BME280;61354;50.758;6.106;2022-08-03T09:05:23;99248.19;;;25.56;48.18
73151;BME280;61354;50.758;6.106;2022-08-03T09:07:50;99256.13;;;25.61;47.97
73151;BME280;61354;50.758;6.106;2022-08-03T09:10:18;99249.28;;;25.58;49.36
73151;BME280;61354;50.758;6.106;2022-08-03T09:12:50;99248.72;;;25.89;46.69
73151;BME280;61354;50.758;6.106;2022-08-03T09:15:20;99259.53;;;25.81;48.07
73151;BME280;61354;50.758;6.106;2022-08-03T09:17:46;99250.16;;;25.93;46.23
73151;BME280;61354;50.758;6.106;2022-08-03T09:20:12;99265.38;;;25.99;46.41
73151;BME280;61354;50.758;6.106;2022-08-03T09:23:05;99257.00;;;25.83;47.54
73151;BME280;61354;50.758;6.106;2022-08-03T09:25:41;99252.78;;;26.00;45.96
73151;BME280;61354;50.758;6.106;2022-08-03T09:28:15;99255.25;;;25.98;47.14
73151;BME280;61354;50.758;6.106;2022-08-03T09:30:43;99258.91;;;25.99;46.60
73151;BME280;61354;50.758;6.106;2022-08-03T09:33:11;99266.84;;;26.04;47.41
73151;BME280;61354;50.758;6.106;2022-08-03T09:35:46;99251.38;;;26.05;47.18
73151;BME280;61354;50.758;6.106;2022-08-03T09:38:17;99260.31;;;26.16;46.48
73151;BME280;61354;50.758;6.106;2022-08-03T09:40:44;99258.41;;;26.35;46.37
73151;BME280;61354;50.758;6.106;2022-08-03T09:43:11;99258.41;;;26.35;46.69
73151;BME280;61354;50.758;6.106;2022-08-03T09:45:38;99253.91;;;26.25;46.86
73151;BME280;61354;50.758;6.106;2022-08-03T09:48:23;99246.63;;;26.24;48.07
73151;BME280;61354;50.758;6.106;2022-08-03T09:51:00;99253.25;;;26.43;45.49
73151;BME280;61354;50.758;6.106;2022-08-03T09:53:26;99252.84;;;26.32;46.66
73151;BME280;61354;50.758;6.106;2022-08-03T09:55:57;99242.66;;;26.43;45.95
73151;BME280;61354;50.758;6.106;2022-08-03T09:58:24;99243.94;;;26.64;44.84
73151;BME280;61354;50.758;6.106;2022-08-03T10:01:02;99259.84;;;26.52;45.75
73151;BME280;61354;50.758;6.106;2022-08-03T10:03:31;99253.53;;;26.58;45.93
73151;BME280;61354;50.758;6.106;2022-08-03T10:05:58;99250.63;;;26.48;45.49
73151;BME280;61354;50.758;6.106;2022-08-03T10:08:38;99241.34;;;26.57;44.15
73151;BME280;61354;50.758;6.106;2022-08-03T10:11:04;99243.34;;;26.47;45.32
73151;BME280;61354;50.758;6.106;2022-08-03T10:13:30;99251.81;;;26.60;44.47
73151;BME280;61354;50.758;6.106;2022-08-03T10:15:56;99237.09;;;26.62;43.56
73151;BME280;61354;50.758;6.106;2022-08-03T10:18:22;99238.72;;;26.63;44.22
73151;BME280;61354;50.758;6.106;2022-08-03T10:20:54;99239.97;;;26.93;44.56
73151;BME280;61354;50.758;6.106;2022-08-03T10:23:22;99231.56;;;26.89;43.79
73151;BME280;61354;50.758;6.106;2022-08-03T10:25:52;99228.53;;;27.15;41.70
73151;BME280;61354;50.758;6.106;2022-08-03T10:28:20;99226.69;;;26.99;43.36
73151;BME280;61354;50.758;6.106;2022-08-03T10:30:49;99234.75;;;27.22;43.67
73151;BME280;61354;50.758;6.106;2022-08-03T10:33:27;99225.91;;;26.98;43.49
73151;BME280;61354;50.758;6.106;2022-08-03T10:35:56;99230.25;;;27.12;43.04
73151;BME280;61354;50.758;6.106;2022-08-03T10:38:28;99220.84;;;27.02;43.85
73151;BME280;61354;50.758;6.106;2022-08-03T10:40:58;99211.94;;;27.22;41.95
73151;BME280;61354;50.758;6.106;2022-08-03T10:43:29;99197.72;;;27.32;42.46
73151;BME280;61354;50.758;6.106;2022-08-03T10:46:02;99217.50;;;27.26;42.28
73151;BME280;61354;50.758;6.106;2022-08-03T10:48:30;99215.44;;;27.26;43.16
73151;BME280;61354;50.758;6.106;2022-08-03T10:50:56;99212.72;;;27.23;42.97
73151;BME280;61354;50.758;6.106;2022-08-03T10:53:40;99214.66;;;27.26;43.49
73151;BME280;61354;50.758;6.106;2022-08-03T10:56:44;99209.91;;;27.32;42.90
73151;BME280;61354;50.758;6.106;2022-08-03T11:02:15;99209.59;;;27.30;42.53
73151;BME280;61354;50.758;6.106;2022-08-03T11:04:43;99206.31;;;27.50;41.31
73151;BME280;61354;50.758;6.106;2022-08-03T11:09:46;99198.56;;;27.69;41.52
73151;BME280;61354;50.758;6.106;2022-08-03T11:12:30;99201.72;;;27.62;42.37
73151;BME280;61354;50.758;6.106;2022-08-03T11:15:02;99199.19;;;27.55;42.25
73151;BME280;61354;50.758;6.106;2022-08-03T11:17:31;99201.44;;;27.69;44.54
73151;BME280;61354;50.758;6.106;2022-08-03T11:19:59;99194.63;;;27.66;42.81
73151;BME280;61354;50.758;6.106;2022-08-03T11:22:25;99196.22;;;27.95;42.24
73151;BME280;61354;50.758;6.106;2022-08-03T11:25:10;99194.50;;;27.88;40.88
73151;BME280;61354;50.758;6.106;2022-08-03T11:27:37;99194.19;;;27.86;42.05
73151;BME280;61354;50.758;6.106;2022-08-03T11:32:56;99193.84;;;28.03;41.04
73151;BME280;61354;50.758;6.106;2022-08-03T11:35:23;99193.22;;;27.98;42.09
73151;BME280;61354;50.758;6.106;2022-08-03T11:48:40;99199.25;;;28.19;40.69
73151;BME280;61354;50.758;6.106;2022-08-03T11:51:37;99189.75;;;28.13;38.94
73151;BME280;61354;50.758;6.106;2022-08-03T11:54:05;99186.91;;;28.13;40.30
73151;BME280;61354;50.758;6.106;2022-08-03T11:56:45;99181.78;;;28.26;40.31
73151;BME280;61354;50.758;6.106;2022-08-03T11:59:11;99185.91;;;28.16;40.27
73151;BME280;61354;50.758;6.106;2022-08-03T12:01:37;99187.19;;;28.24;39.87
73151;BME280;61354;50.758;6.106;2022-08-03T12:04:05;99180.97;;;28.35;40.48
73151;BME280;61354;50.758;6.106;2022-08-03T12:06:31;99183.22;;;28.21;40.78
73151;BME280;61354;50.758;6.106;2022-08-03T12:09:17;99186.56;;;28.38;39.83
73151;BME280;61354;50.758;6.106;2022-08-03T12:11:48;99182.59;;;28.36;40.26
73151;BME280;61354;50.758;6.106;2022-08-03T12:14:18;99184.97;;;28.46;39.63
73151;BME280;61354;50.758;6.106;2022-08-03T12:16:47;99172.41;;;28.44;40.35
73151;BME280;61354;50.758;6.106;2022-08-03T12:19:14;99177.00;;;28.60;40.40
73151;BME280;61354;50.758;6.106;2022-08-03T12:21:48;99172.03;;;28.69;39.50
73151;BME280;61354;50.758;6.106;2022-08-03T12:24:14;99178.56;;;28.70;39.77
73151;BME280;61354;50.758;6.106;2022-08-03T12:26:45;99174.59;;;28.67;39.91
73151;BME280;61354;50.758;6.106;2022-08-03T12:29:20;99166.16;;;28.73;40.24
73151;BME280;61354;50.758;6.106;2022-08-03T12:31:48;99167.34;;;29.00;40.17
73151;BME280;61354;50.758;6.106;2022-08-03T12:34:14;99170.56;;;28.83;39.54
73151;BME280;61354;50.758;6.106;2022-08-03T12:36:52;99175.91;;;28.90;40.44
73151;BME280;61354;50.758;6.106;2022-08-03T12:39:23;99176.53;;;28.94;39.87
73151;BME280;61354;50.758;6.106;2022-08-03T12:41:54;99162.53;;;29.06;39.99
73151;BME280;61354;50.758;6.106;2022-08-03T12:44:34;99163.09;;;29.19;39.15
73151;BME280;61354;50.758;6.106;2022-08-03T12:47:02;99164.16;;;28.97;40.33
73151;BME280;61354;50.758;6.106;2022-08-03T12:49:44;99167.59;;;29.11;39.51
73151;BME280;61354;50.758;6.106;2022-08-03T12:52:10;99165.88;;;29.37;37.93
73151;BME280;61354;50.758;6.106;2022-08-03T12:54:36;99159.00;;;29.20;38.99
73151;BME280;61354;50.758;6.106;2022-08-03T12:57:04;99157.47;;;29.34;38.66
73151;BME280;61354;50.758;6.106;2022-08-03T12:59:37;99148.34;;;29.20;40.28
73151;BME280;61354;50.758;6.106;2022-08-03T13:02:26;99155.53;;;29.07;39.52
73151;BME280;61354;50.758;6.106;2022-08-03T13:04:53;99150.97;;;29.33;38.38
73151;BME280;61354;50.758;6.106;2022-08-03T13:07:20;99142.72;;;29.26;40.18
73151;BME280;61354;50.758;6.106;2022-08-03T13:09:47;99144.84;;;29.40;37.81
73151;BME280;61354;50.758;6.106;2022-08-03T13:12:15;99149.06;;;29.54;37.91
73151;BME280;61354;50.758;6.106;2022-08-03T13:14:44;99146.69;;;29.53;37.83
73151;BME280;61354;50.758;6.106;2022-08-03T13:17:10;99144.13;;;29.55;37.33
73151;BME280;61354;50.758;6.106;2022-08-03T13:19:41;99139.38;;;29.52;38.34
73151;BME280;61354;50.758;6.106;2022-08-03T13:22:15;99141.78;;;29.53;39.19
73151;BME280;61354;50.758;6.106;2022-08-03T13:24:44;99143.28;;;29.39;39.42
73151;BME280;61354;50.758;6.106;2022-08-03T13:27:10;99145.28;;;29.48;38.48
73151;BME280;61354;50.758;6.106;2022-08-03T13:29:41;99138.94;;;29.44;38.15
73151;BME280;61354;50.758;6.106;2022-08-03T13:32:09;99132.53;;;29.58;38.80
73151;BME280;61354;50.758;6.106;2022-08-03T13:34:36;99144.44;;;29.57;38.50
73151;BME280;61354;50.758;6.106;2022-08-03T13:37:02;99146.88;;;29.49;39.28
73151;BME280;61354;50.758;6.106;2022-08-03T13:39:28;99132.00;;;29.36;37.99
73151;BME280;61354;50.758;6.106;2022-08-03T13:41:54;99136.88;;;29.44;38.32